Time;durP1;ratioP1;P1;durP2;ratioP2;P2;SDS_P1;SDS_P2;PMS_P1;PMS_P2;Temp;Humidity;BMP_temperature;BMP_pressure;BME280_temperature;BME280_humidity;BME280_pressure;Samples;Min_cycle;Max_cycle;Signal;HPM_P1;HPM_P2
2022/10/08 00:00:45;;;;;;;10.15;9.30;;;16.40;99.90;;;;;;5014871;28;20215;-89
2022/10/08 00:03:12;;;;;;;10.07;9.20;;;16.40;99.90;;;;;;5011969;28;20230;-88
2022/10/08 00:05:37;;;;;;;9.97;8.97;;;16.30;99.90;;;;;;5018781;28;20212;-88
2022/10/08 00:08:03;;;;;;;10.70;8.55;;;16.40;99.90;;;;;;5030435;28;20193;-89
2022/10/08 00:10:29;;;;;;;9.15;8.35;;;16.40;99.90;;;;;;5038595;28;20193;-89
2022/10/08 00:12:55;;;;;;;9.98;8.57;;;16.40;99.90;;;;;;5037265;28;20217;-89
2022/10/08 00:15:21;;;;;;;9.95;9.05;;;16.50;99.90;;;;;;5017866;28;20237;-89
2022/10/08 00:17:46;;;;;;;9.30;8.15;;;16.50;99.90;;;;;;5014421;28;20204;-88
2022/10/08 00:20:12;;;;;;;9.50;8.57;;;16.50;99.90;;;;;;5013647;28;20550;-88
2022/10/08 00:22:38;;;;;;;10.45;9.45;;;16.50;99.90;;;;;;5013039;28;20233;-88
2022/10/08 00:25:03;;;;;;;9.00;8.27;;;16.40;99.90;;;;;;5013619;28;20631;-89
2022/10/08 00:27:29;;;;;;;10.00;9.00;;;16.30;99.90;;;;;;5013958;28;20664;-88
2022/10/08 00:29:55;;;;;;;10.45;9.18;;;16.40;99.90;;;;;;5012863;28;20189;-88
2022/10/08 00:32:20;;;;;;;10.20;9.20;;;16.30;99.90;;;;;;5012675;28;20551;-89
2022/10/08 00:34:46;;;;;;;11.50;9.23;;;16.30;99.90;;;;;;5020527;28;20259;-88
2022/10/08 00:37:14;;;;;;;10.63;9.55;;;16.20;99.90;;;;;;5013161;28;20201;-89
2022/10/08 00:39:40;;;;;;;11.05;9.02;;;16.20;99.90;;;;;;5012532;28;20193;-89
2022/10/08 00:42:06;;;;;;;9.88;8.98;;;16.20;99.90;;;;;;5013536;28;20231;-88
2022/10/08 00:44:44;;;;;;;9.88;8.77;;;16.30;99.90;;;;;;5012116;28;20637;-88
2022/10/08 00:47:24;;;;;;;9.38;8.57;;;16.40;99.90;;;;;;5014449;28;20561;-88
2022/10/08 00:49:54;;;;;;;9.30;8.60;;;16.40;99.90;;;;;;5016532;28;20287;-89
2022/10/08 00:52:21;;;;;;;9.35;8.55;;;16.40;99.90;;;;;;5015535;28;20211;-89
2022/10/08 00:54:50;;;;;;;10.15;9.18;;;16.40;99.90;;;;;;5006552;28;20625;-88
2022/10/08 00:57:17;;;;;;;12.23;9.00;;;16.40;99.90;;;;;;5013480;28;20188;-89
2022/10/08 00:59:42;;;;;;;10.10;9.00;;;16.40;99.90;;;;;;5000644;28;20201;-89
2022/10/08 01:02:09;;;;;;;8.50;7.82;;;16.50;99.90;;;;;;5012096;28;20290;-88
2022/10/08 01:04:36;;;;;;;10.18;9.27;;;16.40;99.90;;;;;;5010093;28;20196;-88
2022/10/08 01:07:18;;;;;;;10.52;9.45;;;16.50;99.90;;;;;;5013770;28;20189;-88
2022/10/08 01:09:53;;;;;;;9.25;8.38;;;16.50;99.90;;;;;;5011995;28;20681;-88
2022/10/08 01:12:39;;;;;;;10.20;9.05;;;16.50;99.90;;;;;;5009886;28;20219;-88
2022/10/08 01:15:23;;;;;;;9.30;8.30;;;16.40;99.90;;;;;;5012370;28;20719;-88
2022/10/08 01:17:54;;;;;;;9.73;8.83;;;16.40;99.90;;;;;;5008788;28;20592;-88
2022/10/08 01:20:42;;;;;;;10.60;9.70;;;16.40;99.90;;;;;;5011031;28;20266;-89
2022/10/08 01:23:49;;;;;;;10.70;9.60;;;16.30;99.90;;;;;;5012281;28;20666;-89
2022/10/08 01:26:36;;;;;;;11.80;9.93;;;16.20;99.90;;;;;;4952458;29;20189;-88
2022/10/08 01:29:07;;;;;;;10.15;9.13;;;16.00;99.90;;;;;;5012038;28;20378;-88
2022/10/08 01:31:57;;;;;;;10.82;9.73;;;16.00;99.90;;;;;;4999402;28;20261;-88
2022/10/08 01:34:39;;;;;;;11.10;10.07;;;16.10;99.90;;;;;;5011912;28;20202;-88
2022/10/08 01:37:10;;;;;;;11.07;10.03;;;16.10;99.90;;;;;;5003273;28;20480;-88
2022/10/08 01:39:38;;;;;;;11.33;10.33;;;16.10;99.90;;;;;;5011551;28;20698;-88
2022/10/08 01:42:06;;;;;;;10.50;9.50;;;16.10;99.90;;;;;;5012672;28;20198;-88
2022/10/08 01:44:46;;;;;;;13.20;11.03;;;15.90;99.90;;;;;;5012257;28;20199;-88
2022/10/08 01:47:18;;;;;;;11.37;10.23;;;15.70;99.90;;;;;;5010925;28;20192;-88
2022/10/08 01:49:50;;;;;;;14.57;11.37;;;15.60;99.90;;;;;;5012838;28;20459;-89
2022/10/08 01:52:41;;;;;;;12.47;10.80;;;15.70;99.90;;;;;;5011693;28;20359;-89
2022/10/08 01:55:34;;;;;;;11.37;10.17;;;15.80;99.90;;;;;;5001873;28;20209;-88
2022/10/08 01:58:05;;;;;;;10.93;9.80;;;15.90;99.90;;;;;;5001109;28;20203;-88
2022/10/08 02:00:34;;;;;;;13.73;10.33;;;15.80;99.90;;;;;;5015176;28;20215;-89
2022/10/08 02:03:00;;;;;;;11.37;10.27;;;15.80;99.90;;;;;;5028207;28;20271;-89
2022/10/08 02:05:31;;;;;;;12.43;11.13;;;15.90;99.90;;;;;;5029153;28;20197;-89
2022/10/08 02:07:57;;;;;;;12.33;10.40;;;15.90;99.90;;;;;;5031243;28;20680;-89
2022/10/08 02:10:25;;;;;;;11.77;10.37;;;15.70;99.90;;;;;;5029655;28;20189;-89
2022/10/08 02:12:50;;;;;;;12.93;10.80;;;15.70;99.90;;;;;;5027514;28;20210;-89
2022/10/08 02:15:18;;;;;;;11.57;10.43;;;15.80;99.90;;;;;;5027624;28;20210;-90
2022/10/08 02:18:08;;;;;;;12.83;10.93;;;15.80;99.90;;;;;;5019307;28;20193;-89
2022/10/08 02:20:39;;;;;;;12.13;10.87;;;15.70;99.90;;;;;;5005051;28;20197;-89
2022/10/08 02:23:08;;;;;;;12.20;10.53;;;15.50;99.90;;;;;;5015614;28;20220;-89
2022/10/08 02:25:43;;;;;;;12.13;10.10;;;15.70;99.90;;;;;;5025018;28;20185;-89
2022/10/08 02:28:18;;;;;;;11.53;9.70;;;15.90;99.90;;;;;;5020127;28;20188;-89
2022/10/08 02:31:01;;;;;;;11.00;9.87;;;15.90;99.90;;;;;;5021639;28;20208;-89
2022/10/08 02:33:38;;;;;;;13.37;10.03;;;15.90;99.90;;;;;;5025195;28;20221;-89
2022/10/08 02:36:07;;;;;;;11.57;10.47;;;16.00;99.90;;;;;;5024046;28;20232;-89
2022/10/08 02:38:44;;;;;;;10.93;9.82;;;16.00;99.90;;;;;;5021353;28;20191;-89
2022/10/08 02:41:12;;;;;;;10.60;9.60;;;16.00;99.90;;;;;;5022957;28;20213;-89
2022/10/08 02:43:44;;;;;;;10.67;9.57;;;15.90;99.90;;;;;;5022821;28;20233;-89
2022/10/08 02:46:16;;;;;;;12.57;10.03;;;15.90;99.90;;;;;;5024872;28;20224;-89
2022/10/08 02:49:02;;;;;;;10.97;9.90;;;15.90;99.90;;;;;;5003827;28;20212;-90
2022/10/08 02:51:30;;;;;;;10.15;9.10;;;15.80;99.90;;;;;;5020859;28;20195;-89
2022/10/08 02:53:58;;;;;;;14.63;10.52;;;15.80;99.90;;;;;;5024737;28;20212;-89
2022/10/08 02:56:48;;;;;;;11.85;10.60;;;15.90;99.90;;;;;;5025973;28;20204;-89
2022/10/08 02:59:18;;;;;;;13.07;9.77;;;16.00;99.90;;;;;;5030150;28;20184;-89
2022/10/08 03:01:47;;;;;;;10.95;9.82;;;16.10;99.90;;;;;;5034118;28;20181;-88
2022/10/08 03:04:27;;;;;;;11.40;10.23;;;16.30;99.90;;;;;;5020862;28;20332;-88
2022/10/08 03:06:55;;;;;;;11.70;10.30;;;16.20;99.90;;;;;;5016066;28;20177;-88
2022/10/08 03:09:23;;;;;;;12.07;9.85;;;16.20;99.90;;;;;;5016078;28;20256;-89
2022/10/08 03:11:50;;;;;;;12.27;10.90;;;16.20;99.90;;;;;;5010153;28;20284;-88
2022/10/08 03:14:19;;;;;;;10.93;10.00;;;16.20;99.90;;;;;;5015344;28;20190;-88
2022/10/08 03:16:46;;;;;;;12.50;10.27;;;16.20;99.90;;;;;;5017460;28;20185;-88
2022/10/08 03:19:15;;;;;;;12.40;11.18;;;16.30;99.90;;;;;;5021006;28;20273;-89
2022/10/08 03:21:43;;;;;;;13.35;11.93;;;16.30;99.90;;;;;;5020303;28;20284;-88
2022/10/08 03:24:10;;;;;;;12.40;11.18;;;16.20;99.90;;;;;;5022080;28;20538;-89
2022/10/08 03:26:35;;;;;;;12.65;11.45;;;16.10;99.90;;;;;;5021280;28;20665;-88
2022/10/08 03:29:02;;;;;;;12.48;11.18;;;16.20;99.90;;;;;;5018730;28;20206;-88
2022/10/08 03:31:27;;;;;;;11.55;10.55;;;16.20;99.90;;;;;;5016492;28;20208;-88
2022/10/08 03:33:53;;;;;;;15.98;11.40;;;16.10;99.90;;;;;;5013274;28;20285;-88
2022/10/08 03:36:21;;;;;;;13.15;11.70;;;16.20;99.90;;;;;;5013418;28;20199;-88
2022/10/08 03:38:47;;;;;;;12.32;11.23;;;16.20;99.90;;;;;;5015878;28;20188;-88
2022/10/08 03:41:13;;;;;;;12.20;10.90;;;16.00;99.90;;;;;;5016010;28;20189;-88
2022/10/08 03:43:39;;;;;;;15.02;11.63;;;15.90;99.90;;;;;;5014478;28;20204;-88
2022/10/08 03:46:05;;;;;;;11.77;10.38;;;15.90;99.90;;;;;;5013325;28;20186;-88
2022/10/08 03:48:31;;;;;;;12.38;11.10;;;16.10;99.90;;;;;;5012117;28;20198;-88
2022/10/08 03:51:03;;;;;;;11.73;10.70;;;16.10;99.90;;;;;;5014818;28;20188;-88
2022/10/08 03:53:32;;;;;;;15.02;11.88;;;16.10;99.90;;;;;;5015828;28;20723;-89
2022/10/08 03:56:06;;;;;;;11.55;10.35;;;16.10;99.90;;;;;;5015717;28;20197;-88
2022/10/08 03:58:32;;;;;;;11.30;10.18;;;16.20;99.90;;;;;;5012375;28;20188;-88
2022/10/08 04:01:00;;;;;;;15.38;10.77;;;16.20;99.90;;;;;;5009558;28;20617;-88
2022/10/08 04:03:27;;;;;;;10.50;9.43;;;16.30;99.90;;;;;;5015095;28;20293;-89
2022/10/08 04:05:53;;;;;;;12.65;11.38;;;16.20;99.90;;;;;;5014331;28;20189;-88
2022/10/08 04:08:19;;;;;;;11.50;10.38;;;16.20;99.90;;;;;;5014044;28;20195;-89
2022/10/08 04:10:44;;;;;;;11.20;9.68;;;16.30;99.90;;;;;;5007870;28;20194;-88
2022/10/08 04:13:10;;;;;;;11.40;10.32;;;16.30;99.90;;;;;;5016476;28;20216;-88
2022/10/08 04:15:36;;;;;;;11.27;9.98;;;16.30;99.90;;;;;;5004324;28;20197;-88
2022/10/08 04:18:02;;;;;;;12.07;10.85;;;16.30;99.90;;;;;;5009051;28;20200;-88
2022/10/08 04:20:27;;;;;;;10.75;9.70;;;16.30;99.90;;;;;;5016026;28;20272;-89
2022/10/08 04:22:53;;;;;;;10.68;9.80;;;16.20;99.90;;;;;;5016109;28;20626;-88
2022/10/08 04:25:18;;;;;;;10.90;9.90;;;16.30;99.90;;;;;;5016311;28;20193;-89
2022/10/08 04:27:48;;;;;;;11.65;10.20;;;16.40;99.90;;;;;;5015430;28;20204;-89
2022/10/08 04:30:14;;;;;;;10.98;9.95;;;16.30;99.90;;;;;;5016040;28;20184;-88
2022/10/08 04:32:40;;;;;;;10.52;9.52;;;16.40;99.90;;;;;;5014919;28;20204;-88
2022/10/08 04:35:06;;;;;;;11.43;10.27;;;16.40;99.90;;;;;;5017136;28;20695;-88
2022/10/08 04:37:32;;;;;;;12.40;10.98;;;16.40;99.90;;;;;;5017487;28;20193;-88
2022/10/08 04:39:58;;;;;;;10.68;9.77;;;16.40;99.90;;;;;;5016680;28;20199;-88
2022/10/08 04:42:23;;;;;;;11.45;9.77;;;16.30;99.90;;;;;;5014773;28;20558;-88
2022/10/08 04:44:49;;;;;;;11.27;10.15;;;16.20;99.90;;;;;;5035521;28;20204;-88
2022/10/08 04:47:14;;;;;;;10.95;9.98;;;16.20;99.90;;;;;;5036221;28;20194;-87
2022/10/08 04:49:40;;;;;;;12.82;11.52;;;16.10;99.90;;;;;;5033523;28;20289;-88
2022/10/08 04:52:06;;;;;;;12.23;10.05;;;16.10;99.90;;;;;;5012689;28;20181;-88
2022/10/08 04:54:32;;;;;;;10.80;9.70;;;16.20;99.90;;;;;;5010227;28;20193;-88
2022/10/08 04:56:57;;;;;;;10.02;9.23;;;16.20;99.90;;;;;;5015677;28;20201;-88
2022/10/08 04:59:23;;;;;;;10.45;9.43;;;16.20;99.90;;;;;;5015970;28;20538;-88
2022/10/08 05:01:49;;;;;;;11.60;10.38;;;16.00;99.90;;;;;;5013712;28;20195;-88
2022/10/08 05:04:14;;;;;;;12.25;9.75;;;16.00;99.90;;;;;;5015257;28;20214;-88
2022/10/08 05:06:40;;;;;;;10.52;9.52;;;15.80;99.90;;;;;;5014039;28;20668;-88
2022/10/08 05:09:06;;;;;;;10.52;8.52;;;15.90;99.90;;;;;;5013841;28;20189;-88
2022/10/08 05:11:32;;;;;;;10.43;9.52;;;15.90;99.90;;;;;;5006903;28;20507;-88
2022/10/08 05:13:58;;;;;;;11.45;9.60;;;16.00;99.90;;;;;;5011400;28;20212;-88
2022/10/08 05:16:25;;;;;;;10.98;10.05;;;16.10;99.90;;;;;;5014779;28;20596;-89
2022/10/08 05:18:51;;;;;;;11.60;10.55;;;16.10;99.90;;;;;;4997260;28;20666;-88
2022/10/08 05:21:26;;;;;;;10.25;9.18;;;16.10;99.90;;;;;;5014944;28;20200;-88
2022/10/08 05:24:06;;;;;;;11.57;9.63;;;16.00;99.90;;;;;;5013911;28;20863;-88
2022/10/08 05:26:37;;;;;;;10.25;9.38;;;16.00;99.90;;;;;;5014229;28;20276;-88
2022/10/08 05:29:03;;;;;;;9.98;8.70;;;16.00;99.90;;;;;;5014719;28;20184;-88
2022/10/08 05:31:30;;;;;;;9.70;8.80;;;16.00;99.90;;;;;;5015775;28;20197;-88
2022/10/08 05:33:56;;;;;;;10.65;8.95;;;15.90;99.90;;;;;;5016905;28;20218;-88
2022/10/08 05:36:27;;;;;;;11.68;10.15;;;16.00;99.90;;;;;;5014858;28;20307;-88
2022/10/08 05:38:55;;;;;;;9.90;8.90;;;16.10;99.90;;;;;;5013119;28;20188;-88
2022/10/08 05:41:24;;;;;;;9.25;8.35;;;15.90;99.90;;;;;;5013639;28;20197;-88
2022/10/08 05:43:50;;;;;;;9.80;8.80;;;15.90;99.90;;;;;;5016176;28;20634;-88
2022/10/08 05:46:16;;;;;;;10.02;8.70;;;16.00;99.90;;;;;;5028366;28;20201;-88
2022/10/08 05:48:42;;;;;;;9.65;8.77;;;16.00;99.90;;;;;;5032592;28;20206;-89
2022/10/08 05:51:11;;;;;;;9.40;7.97;;;16.00;99.90;;;;;;5026359;28;20256;-89
2022/10/08 05:53:38;;;;;;;10.00;8.80;;;16.00;99.90;;;;;;5014541;28;20227;-89
2022/10/08 05:56:06;;;;;;;10.05;9.07;;;16.00;99.90;;;;;;5014203;28;20276;-88
2022/10/08 05:58:34;;;;;;;9.65;8.27;;;15.90;99.90;;;;;;5014519;28;20235;-88
2022/10/08 06:01:15;;;;;;;9.07;8.27;;;15.90;99.90;;;;;;5013603;28;20268;-89
2022/10/08 06:03:41;;;;;;;8.57;7.65;;;15.90;99.90;;;;;;5011876;28;20265;-88
2022/10/08 06:06:09;;;;;;;8.88;7.97;;;15.80;99.90;;;;;;5013955;28;20196;-88
2022/10/08 06:08:36;;;;;;;8.98;8.20;;;15.80;99.90;;;;;;5013275;28;20281;-88
2022/10/08 06:11:03;;;;;;;11.13;7.82;;;15.80;99.90;;;;;;5013508;28;20220;-88
2022/10/08 06:13:28;;;;;;;9.70;8.80;;;15.90;99.90;;;;;;5013829;28;20208;-88
2022/10/08 06:16:02;;;;;;;9.27;8.38;;;15.80;99.90;;;;;;5013364;28;20182;-88
2022/10/08 06:18:30;;;;;;;9.23;8.43;;;15.80;99.90;;;;;;5011657;28;20193;-88
2022/10/08 06:20:56;;;;;;;9.63;8.75;;;15.70;99.90;;;;;;5009934;28;20188;-88
2022/10/08 06:23:23;;;;;;;8.07;7.32;;;15.70;99.90;;;;;;5018520;28;20236;-88
2022/10/08 06:25:49;;;;;;;8.68;7.05;;;15.70;99.90;;;;;;5013174;28;20312;-88
2022/10/08 06:28:15;;;;;;;9.35;8.35;;;15.70;99.90;;;;;;5012991;28;20216;-88
2022/10/08 06:30:41;;;;;;;8.65;7.80;;;15.80;99.90;;;;;;5013905;28;20563;-88
2022/10/08 06:33:08;;;;;;;8.63;7.97;;;15.80;99.90;;;;;;5011037;28;20691;-89
2022/10/08 06:35:34;;;;;;;9.90;8.85;;;15.80;99.90;;;;;;5013117;28;20677;-88
2022/10/08 06:38:00;;;;;;;9.23;8.43;;;15.80;99.90;;;;;;5013978;28;20195;-88
2022/10/08 06:40:25;;;;;;;9.73;8.70;;;15.80;99.90;;;;;;5020084;28;20206;-88
2022/10/08 06:42:51;;;;;;;9.70;8.90;;;15.70;99.90;;;;;;5017435;28;20226;-89
2022/10/08 06:45:17;;;;;;;11.52;10.20;;;15.70;99.90;;;;;;5013996;28;20201;-88
2022/10/08 06:47:43;;;;;;;9.07;8.00;;;15.70;99.90;;;;;;5012642;28;20189;-89
2022/10/08 06:50:08;;;;;;;8.75;8.02;;;15.80;99.90;;;;;;5012267;28;20189;-89
2022/10/08 06:52:34;;;;;;;9.25;8.55;;;15.80;99.90;;;;;;5012111;28;20209;-89
2022/10/08 06:55:00;;;;;;;8.77;7.97;;;15.80;99.90;;;;;;5012571;28;20193;-88
2022/10/08 06:57:26;;;;;;;9.57;8.23;;;15.90;99.90;;;;;;5012527;28;20212;-89
2022/10/08 06:59:56;;;;;;;8.93;8.00;;;15.90;99.90;;;;;;5010811;28;20649;-89
2022/10/08 07:02:22;;;;;;;8.75;7.57;;;15.90;99.90;;;;;;5011510;28;20313;-89
2022/10/08 07:04:48;;;;;;;11.07;8.48;;;15.90;99.90;;;;;;5011689;28;20196;-89
2022/10/08 07:07:13;;;;;;;10.10;7.82;;;15.90;99.90;;;;;;5008948;28;20199;-89
2022/10/08 07:09:39;;;;;;;10.48;7.18;;;15.90;99.90;;;;;;5007025;28;20197;-89
2022/10/08 07:12:05;;;;;;;9.27;8.40;;;15.90;99.90;;;;;;5011689;28;20331;-89
2022/10/08 07:14:30;;;;;;;10.30;8.20;;;15.90;99.90;;;;;;5012488;28;20192;-85
2022/10/08 07:16:56;;;;;;;11.15;8.13;;;15.90;99.90;;;;;;5015017;28;20187;-85
2022/10/08 07:19:22;;;;;;;9.13;7.90;;;15.80;99.90;;;;;;5012171;28;20239;-85
2022/10/08 07:21:48;;;;;;;9.00;7.38;;;15.80;99.90;;;;;;5011909;28;20195;-89
2022/10/08 07:24:14;;;;;;;9.82;7.38;;;15.80;99.90;;;;;;5003303;28;20244;-89
2022/10/08 07:26:39;;;;;;;8.65;7.07;;;15.70;99.90;;;;;;5001204;28;20323;-89
2022/10/08 07:29:12;;;;;;;11.00;8.10;;;15.70;99.90;;;;;;5010807;28;20393;-89
2022/10/08 07:31:39;;;;;;;8.80;7.80;;;15.70;99.90;;;;;;5007553;28;20565;-89
2022/10/08 07:34:11;;;;;;;7.50;6.90;;;15.70;99.90;;;;;;5008406;28;20215;-89
2022/10/08 07:36:37;;;;;;;7.50;6.57;;;15.70;99.90;;;;;;4997410;28;20196;-89
2022/10/08 07:39:05;;;;;;;8.43;7.60;;;15.60;99.90;;;;;;5009335;28;20386;-88
2022/10/08 07:41:32;;;;;;;9.40;6.80;;;15.60;99.90;;;;;;5011307;28;20201;-89
2022/10/08 07:43:59;;;;;;;13.17;7.87;;;15.40;99.90;;;;;;5010044;28;20223;-89
2022/10/08 07:46:26;;;;;;;9.30;6.53;;;15.30;99.90;;;;;;5011314;28;20215;-88
2022/10/08 07:48:55;;;;;;;9.73;6.80;;;15.30;99.90;;;;;;5011753;28;20263;-89
2022/10/08 07:51:21;;;;;;;7.20;6.50;;;15.30;99.90;;;;;;5011548;28;20183;-89
2022/10/08 07:53:47;;;;;;;7.80;7.10;;;15.10;99.90;;;;;;5011568;28;20214;-89
2022/10/08 07:56:15;;;;;;;7.60;6.83;;;15.20;99.90;;;;;;5011239;28;20194;-89
2022/10/08 07:58:41;;;;;;;10.33;7.20;;;15.20;99.90;;;;;;5009870;28;20225;-88
2022/10/08 08:01:11;;;;;;;9.27;6.93;;;15.20;99.90;;;;;;5011342;28;20722;-88
2022/10/08 08:03:36;;;;;;;7.47;6.60;;;15.10;99.90;;;;;;5016428;28;20296;-89
2022/10/08 08:06:05;;;;;;;8.10;6.33;;;15.00;99.90;;;;;;5013806;28;20623;-89
2022/10/08 08:08:31;;;;;;;8.63;6.57;;;15.10;99.90;;;;;;5018136;28;20654;-88
2022/10/08 08:10:58;;;;;;;11.53;6.70;;;15.00;99.90;;;;;;5014738;28;20338;-89
2022/10/08 08:13:23;;;;;;;8.20;6.67;;;15.00;99.90;;;;;;5015118;28;20580;-88
2022/10/08 08:16:01;;;;;;;9.37;6.90;;;15.10;99.90;;;;;;5008932;28;20192;-89
2022/10/08 08:18:32;;;;;;;7.10;6.27;;;15.00;99.90;;;;;;5015403;28;20271;-89
2022/10/08 08:20:59;;;;;;;9.13;6.20;;;15.00;99.90;;;;;;5015483;28;20396;-88
2022/10/08 08:23:31;;;;;;;8.70;6.10;;;15.10;99.90;;;;;;5012442;28;20653;-89
2022/10/08 08:26:01;;;;;;;10.70;6.27;;;15.30;99.90;;;;;;5013440;28;20197;-89
2022/10/08 08:28:28;;;;;;;9.07;5.80;;;15.20;99.90;;;;;;5013374;28;20691;-88
2022/10/08 08:31:04;;;;;;;7.20;5.47;;;15.20;99.90;;;;;;5015187;28;20197;-88
2022/10/08 08:33:31;;;;;;;9.93;5.57;;;15.30;99.20;;;;;;5014260;28;20718;-88
2022/10/08 08:35:57;;;;;;;8.73;5.73;;;15.30;99.90;;;;;;5031634;28;20216;-88
2022/10/08 08:38:22;;;;;;;8.03;5.60;;;15.30;99.00;;;;;;5020885;28;20203;-88
2022/10/08 08:40:48;;;;;;;9.17;5.90;;;15.50;97.70;;;;;;5025698;28;20239;-88
2022/10/08 08:43:14;;;;;;;11.43;5.23;;;15.50;97.40;;;;;;5006261;28;20222;-89
2022/10/08 08:45:42;;;;;;;8.23;5.40;;;15.50;98.40;;;;;;5014059;28;20235;-89
2022/10/08 08:48:35;;;;;;;10.70;5.53;;;15.60;96.00;;;;;;5016042;28;20806;-88
2022/10/08 08:51:03;;;;;;;7.17;5.67;;;15.60;96.60;;;;;;5012470;28;20598;-88
2022/10/08 08:53:29;;;;;;;7.50;5.40;;;15.60;96.70;;;;;;5015637;28;20259;-88
2022/10/08 08:55:58;;;;;;;9.40;5.60;;;15.70;96.90;;;;;;5021055;28;20244;-89
2022/10/08 08:58:41;;;;;;;7.13;5.07;;;15.90;94.80;;;;;;5002904;28;20196;-88
2022/10/08 09:01:29;;;;;;;8.90;5.17;;;16.00;93.40;;;;;;5012161;28;20737;-89
2022/10/08 09:03:59;;;;;;;6.20;4.80;;;15.80;94.80;;;;;;5012456;28;20209;-88
2022/10/08 09:06:25;;;;;;;6.20;4.77;;;15.80;96.90;;;;;;5011992;28;20203;-89
2022/10/08 09:09:18;;;;;;;8.60;5.37;;;15.90;96.90;;;;;;5014341;28;20201;-89
2022/10/08 09:11:44;;;;;;;7.53;4.63;;;16.20;94.00;;;;;;5015068;28;20506;-89
2022/10/08 09:14:13;;;;;;;6.83;4.57;;;16.30;87.60;;;;;;5016930;28;20201;-89
2022/10/08 09:16:40;;;;;;;5.67;4.50;;;16.30;89.40;;;;;;5019915;28;20270;-89
2022/10/08 09:19:05;;;;;;;5.57;4.17;;;16.50;86.00;;;;;;5027670;28;20202;-88
2022/10/08 09:21:33;;;;;;;6.57;4.70;;;16.60;82.30;;;;;;5030196;28;20194;-88
2022/10/08 09:23:59;;;;;;;8.23;4.57;;;17.00;79.40;;;;;;5027450;28;20214;-88
2022/10/08 09:26:31;;;;;;;7.27;4.43;;;16.90;78.90;;;;;;5018965;28;20240;-88
2022/10/08 09:28:59;;;;;;;5.77;4.43;;;16.90;79.90;;;;;;5011617;28;20201;-89
2022/10/08 09:31:26;;;;;;;8.37;5.03;;;17.00;81.30;;;;;;5013221;28;20204;-89
2022/10/08 09:34:14;;;;;;;8.60;4.87;;;17.00;82.20;;;;;;5009634;28;20216;-89
2022/10/08 09:36:41;;;;;;;7.90;4.30;;;17.30;80.50;;;;;;5013288;28;20187;-88
2022/10/08 09:39:19;;;;;;;7.18;3.55;;;17.40;75.70;;;;;;5013416;28;20194;-89
2022/10/08 09:41:46;;;;;;;6.25;3.60;;;17.60;73.20;;;;;;5011976;28;20207;-89
2022/10/08 09:44:19;;;;;;;10.55;3.90;;;17.90;73.00;;;;;;5013311;28;20600;-89
2022/10/08 09:46:45;;;;;;;8.73;3.70;;;18.10;67.50;;;;;;5013086;28;20534;-89
2022/10/08 09:49:30;;;;;;;8.13;4.18;;;18.30;66.80;;;;;;5013204;28;20232;-89
2022/10/08 09:52:00;;;;;;;9.20;4.20;;;18.60;65.10;;;;;;5013384;28;20189;-89
2022/10/08 09:54:33;;;;;;;9.07;4.10;;;18.90;64.20;;;;;;5013089;28;20204;-89
2022/10/08 09:56:59;;;;;;;5.75;3.90;;;19.10;62.40;;;;;;5008487;28;20240;-89
2022/10/08 09:59:29;;;;;;;9.00;3.78;;;19.10;61.80;;;;;;5013498;28;20218;-89
2022/10/08 10:01:55;;;;;;;8.13;4.32;;;19.00;63.00;;;;;;5011518;28;20194;-88
2022/10/08 10:04:35;;;;;;;8.52;4.20;;;19.20;61.80;;;;;;5010707;28;20208;-89
2022/10/08 10:07:01;;;;;;;8.40;3.90;;;19.30;60.00;;;;;;5008041;28;20181;-89
2022/10/08 10:09:41;;;;;;;6.35;3.85;;;19.50;60.10;;;;;;5008051;28;20289;-89
2022/10/08 10:12:12;;;;;;;5.72;3.95;;;19.60;59.90;;;;;;5010658;28;20201;-89
2022/10/08 10:14:43;;;;;;;7.65;4.10;;;19.90;59.40;;;;;;5005926;28;20178;-89
2022/10/08 10:18:04;;;;;;;8.10;3.70;;;19.90;58.70;;;;;;5012668;28;20209;-89
2022/10/08 10:20:40;;;;;;;5.85;3.67;;;19.90;57.70;;;;;;4975619;28;20204;-89
2022/10/08 10:23:46;;;;;;;5.03;3.47;;;20.10;58.60;;;;;;5002320;28;20222;-89
2022/10/08 10:26:23;;;;;;;8.00;4.30;;;20.00;58.00;;;;;;4990903;28;20287;-89
2022/10/08 10:29:00;;;;;;;8.23;4.30;;;20.00;57.10;;;;;;5004645;28;20222;-89
2022/10/08 10:31:50;;;;;;;6.35;3.80;;;19.70;59.00;;;;;;5014638;28;20221;-89
2022/10/08 10:34:19;;;;;;;7.05;3.72;;;19.90;58.00;;;;;;5012467;28;20224;-89
2022/10/08 10:36:50;;;;;;;3.95;3.50;;;20.10;55.80;;;;;;5010447;28;20199;-89
2022/10/08 10:39:28;;;;;;;6.88;3.78;;;20.30;55.90;;;;;;5006010;28;20598;-89
2022/10/08 10:42:17;;;;;;;4.45;3.40;;;20.30;55.40;;;;;;5010094;28;20259;-89
2022/10/08 10:45:02;;;;;;;6.00;3.85;;;20.40;56.80;;;;;;5007628;28;20195;-89
2022/10/08 10:47:30;;;;;;;7.63;4.07;;;20.50;56.70;;;;;;5010145;28;20769;-89
2022/10/08 10:49:57;;;;;;;7.38;3.63;;;20.80;55.90;;;;;;5008405;28;20672;-89
2022/10/08 10:52:22;;;;;;;4.95;3.40;;;21.00;55.50;;;;;;5009921;28;20857;-89
2022/10/08 10:55:06;;;;;;;7.00;3.75;;;20.60;56.10;;;;;;5011223;28;20184;-89
2022/10/08 10:58:04;;;;;;;5.50;3.40;;;20.80;55.40;;;;;;5010480;28;20190;-89
2022/10/08 11:01:04;;;;;;;5.13;3.78;;;21.00;54.00;;;;;;5007596;28;20239;-89
2022/10/08 11:04:03;;;;;;;5.43;3.88;;;21.00;55.40;;;;;;5010883;28;20211;-89
2022/10/08 11:06:41;;;;;;;5.28;2.95;;;20.70;54.40;;;;;;5012394;28;20565;-89
2022/10/08 11:09:39;;;;;;;4.38;3.25;;;21.00;52.40;;;;;;5006650;28;20215;-89
2022/10/08 11:12:32;;;;;;;5.82;3.92;;;21.50;51.10;;;;;;5009885;28;20207;-90
2022/10/08 11:15:16;;;;;;;6.93;3.15;;;22.00;47.80;;;;;;5011442;28;20205;-89
2022/10/08 11:18:43;;;;;;;7.03;4.15;;;22.00;48.50;;;;;;5010008;28;20178;-89
2022/10/08 11:21:15;;;;;;;6.53;3.95;;;22.50;47.60;;;;;;4968666;28;20179;-89
2022/10/08 11:24:08;;;;;;;3.38;3.03;;;22.60;48.80;;;;;;5025696;28;20297;-90
2022/10/08 11:26:55;;;;;;;6.20;3.40;;;22.00;47.40;;;;;;5013907;28;20200;-89
2022/10/08 11:29:42;;;;;;;4.97;3.08;;;21.40;48.60;;;;;;5009776;28;20221;-89
2022/10/08 11:32:14;;;;;;;8.25;3.05;;;21.10;49.70;;;;;;5011261;28;20287;-89
2022/10/08 11:35:05;;;;;;;4.10;3.08;;;21.10;50.20;;;;;;5006095;28;20181;-89
2022/10/08 11:37:39;;;;;;;5.10;3.10;;;21.00;50.10;;;;;;5004169;28;20248;-89
2022/10/08 11:40:42;;;;;;;6.57;3.22;;;20.90;51.20;;;;;;5015572;28;20526;-89
2022/10/08 11:43:27;;;;;;;5.15;3.22;;;20.80;51.40;;;;;;5008519;28;20782;-89
2022/10/08 11:46:18;;;;;;;5.25;2.67;;;20.60;51.20;;;;;;5013842;28;20651;-89
2022/10/08 11:48:44;;;;;;;3.83;2.85;;;20.60;52.20;;;;;;5014202;28;20318;-89
2022/10/08 11:51:31;;;;;;;4.88;2.60;;;20.50;50.20;;;;;;5014378;28;20275;-89
2022/10/08 11:54:30;;;;;;;8.20;3.97;;;20.50;50.30;;;;;;5012320;28;20235;-89
2022/10/08 11:57:30;;;;;;;8.25;3.42;;;20.30;51.80;;;;;;5014738;28;20219;-89
2022/10/08 12:00:43;;;;;;;5.32;2.95;;;20.50;51.80;;;;;;5014176;28;20214;-89
2022/10/08 12:03:26;;;;;;;3.13;2.75;;;20.60;51.20;;;;;;5011028;28;20709;-89
2022/10/08 12:06:13;;;;;;;2.75;2.40;;;20.70;51.60;;;;;;5013526;28;20213;-89
2022/10/08 12:09:07;;;;;;;7.88;3.20;;;20.70;49.80;;;;;;5005852;28;20180;-90
2022/10/08 12:11:38;;;;;;;2.33;2.13;;;20.60;47.50;;;;;;5015842;28;20283;-89
2022/10/08 12:14:10;;;;;;;2.60;2.38;;;20.20;49.80;;;;;;5016541;28;20820;-89
2022/10/08 12:17:04;;;;;;;2.65;2.45;;;20.00;50.20;;;;;;5014095;28;20204;-89
2022/10/08 12:19:33;;;;;;;2.47;2.15;;;19.90;51.50;;;;;;5002603;28;20379;-89
2022/10/08 12:22:13;;;;;;;3.75;2.22;;;19.70;52.40;;;;;;5005987;28;20197;-89
2022/10/08 12:24:39;;;;;;;3.40;2.33;;;19.70;52.20;;;;;;5013635;28;20660;-89
2022/10/08 12:27:17;;;;;;;4.28;2.20;;;19.60;52.50;;;;;;5013833;28;20451;-89
2022/10/08 12:30:01;;;;;;;2.60;2.40;;;19.60;52.10;;;;;;5012252;28;20182;-89
2022/10/08 12:32:32;;;;;;;2.70;2.15;;;19.70;52.50;;;;;;5019937;28;20218;-89
2022/10/08 12:34:59;;;;;;;2.30;2.10;;;19.60;54.00;;;;;;5022995;28;20185;-88
2022/10/08 12:37:39;;;;;;;3.92;2.10;;;19.80;53.30;;;;;;5023298;28;20547;-89
2022/10/08 12:40:32;;;;;;;3.60;2.35;;;19.90;52.00;;;;;;5020005;28;20182;-89
2022/10/08 12:43:24;;;;;;;4.20;2.50;;;20.10;52.30;;;;;;5022198;28;20432;-89
2022/10/08 12:46:01;;;;;;;3.65;2.25;;;20.20;52.50;;;;;;5019835;28;20597;-88
2022/10/08 12:48:38;;;;;;;3.42;2.28;;;20.10;51.30;;;;;;5018639;28;20181;-89
2022/10/08 12:51:09;;;;;;;7.15;3.30;;;20.30;51.80;;;;;;5022233;28;20203;-89
2022/10/08 12:53:35;;;;;;;15.45;4.07;;;20.90;51.40;;;;;;5022374;28;20255;-89
2022/10/08 12:56:00;;;;;;;10.05;3.42;;;21.40;49.90;;;;;;5021266;28;20185;-89
2022/10/08 12:58:34;;;;;;;6.00;2.42;;;21.40;49.00;;;;;;5021051;28;20668;-89
2022/10/08 13:01:03;;;;;;;4.82;2.40;;;21.20;48.40;;;;;;5011822;28;20208;-89
2022/10/08 13:03:28;;;;;;;94.50;17.55;;;21.00;48.60;;;;;;5034478;28;20219;-89
2022/10/08 13:05:55;;;;;;;5.03;2.88;;;20.90;49.70;;;;;;5021999;28;20209;-89